createdAt,value
2023-01-11T00:01:20.710Z,97.20
2023-01-11T00:03:47.970Z,97.40
2023-01-11T00:06:17.677Z,97.30
2023-01-11T00:08:47.839Z,97.40
2023-01-11T00:11:18.584Z,97.60
2023-01-11T00:13:46.143Z,97.70
2023-01-11T00:16:13.654Z,97.80
2023-01-11T00:18:41.157Z,97.70
2023-01-11T00:21:09.388Z,97.80
2023-01-11T00:23:38.502Z,97.60
2023-01-11T00:26:12.564Z,97.60
2023-01-11T00:28:43.139Z,97.70
2023-01-11T00:31:10.563Z,97.50
2023-01-11T00:33:38.536Z,97.40
2023-01-11T00:36:09.148Z,97.60
2023-01-11T00:38:51.730Z,97.60
2023-01-11T00:41:38.567Z,97.80
2023-01-11T00:44:25.070Z,97.50
2023-01-11T00:47:13.339Z,97.50
2023-01-11T00:49:41.626Z,97.60
2023-01-11T00:52:10.072Z,97.60
2023-01-11T00:54:39.639Z,97.70
2023-01-11T00:57:10.389Z,97.80
2023-01-11T00:59:43.344Z,97.90
2023-01-11T01:02:13.912Z,98.00
2023-01-11T01:04:43.919Z,97.90
2023-01-11T01:07:13.392Z,98.00
2023-01-11T01:09:40.884Z,98.00
2023-01-11T01:15:14.393Z,98.10
2023-01-11T01:17:43.835Z,98.20
2023-01-11T01:20:13.489Z,98.10
2023-01-11T01:22:41.442Z,98.20
2023-01-11T01:25:09.092Z,98.20
2023-01-11T01:27:41.784Z,98.20
2023-01-11T01:30:15.185Z,98.00
2023-01-11T01:32:42.470Z,98.10
2023-01-11T01:35:10.332Z,97.80
2023-01-11T01:37:38.317Z,97.70
2023-01-11T01:40:06.672Z,97.90
2023-01-11T01:42:33.784Z,98.00
2023-01-11T01:45:41.461Z,98.00
2023-01-11T01:48:16.220Z,98.00
2023-01-11T01:51:00.606Z,98.10
2023-01-11T01:53:38.317Z,98.20
2023-01-11T01:56:16.087Z,97.90
2023-01-11T01:58:52.270Z,97.80
2023-01-11T02:01:40.505Z,97.60
2023-01-11T02:04:22.040Z,97.90
2023-01-11T02:06:50.772Z,97.80
2023-01-11T02:09:30.001Z,97.70
2023-01-11T02:11:58.896Z,97.70
2023-01-11T02:14:28.142Z,97.70
2023-01-11T02:17:18.386Z,97.60
2023-01-11T02:20:14.704Z,97.70
2023-01-11T02:23:18.592Z,97.80
2023-01-11T02:25:54.842Z,97.80
2023-01-11T02:28:28.689Z,97.80
2023-01-11T02:31:20.004Z,97.60
2023-01-11T02:34:06.419Z,97.50
2023-01-11T02:36:51.265Z,97.50
2023-01-11T02:39:44.538Z,97.30
2023-01-11T02:43:06.531Z,97.50
2023-01-11T02:46:07.748Z,97.50
2023-01-11T02:48:39.746Z,97.70
2023-01-11T02:51:16.782Z,97.80
2023-01-11T02:53:52.213Z,97.90
2023-01-11T02:56:32.712Z,97.90
2023-01-11T02:59:01.614Z,98.00
2023-01-11T03:01:28.831Z,98.00
2023-01-11T03:03:56.485Z,98.00
2023-01-11T03:06:32.762Z,98.00
2023-01-11T03:09:15.239Z,98.00
2023-01-11T03:12:38.451Z,98.00
2023-01-11T03:15:23.791Z,98.10
2023-01-11T03:18:14.982Z,98.00
2023-01-11T03:20:57.505Z,97.90
2023-01-11T03:23:37.259Z,97.70
2023-01-11T03:26:35.932Z,97.70
2023-01-11T03:29:14.153Z,97.80
2023-01-11T03:32:15.021Z,97.80
2023-01-11T03:35:00.085Z,98.00
2023-01-11T03:37:56.912Z,97.90
2023-01-11T03:40:52.650Z,98.10
2023-01-11T03:43:23.575Z,98.20
2023-01-11T03:46:35.148Z,98.20
2023-01-11T03:49:26.629Z,98.30
2023-01-11T03:52:09.995Z,98.20
2023-01-11T03:54:40.749Z,98.40
2023-01-11T03:57:18.822Z,98.30
2023-01-11T03:59:53.708Z,98.20
2023-01-11T04:02:25.516Z,98.30
2023-01-11T04:04:53.064Z,98.30
2023-01-11T04:07:20.601Z,98.40
2023-01-11T04:09:50.284Z,98.20
2023-01-11T04:12:23.858Z,98.20
2023-01-11T04:14:58.926Z,98.10
2023-01-11T04:17:26.332Z,98.10
2023-01-11T04:19:55.829Z,98.20
2023-01-11T04:22:28.908Z,98.20
2023-01-11T04:24:56.141Z,98.10
2023-01-11T04:27:23.663Z,98.00
2023-01-11T04:29:50.672Z,98.10
2023-01-11T04:32:18.158Z,98.10
2023-01-11T04:34:48.190Z,98.10
2023-01-11T04:37:25.131Z,98.10
2023-01-11T04:39:54.752Z,97.90
2023-01-11T04:42:22.304Z,98.00
2023-01-11T04:44:50.591Z,97.70
2023-01-11T04:47:19.983Z,97.90
2023-01-11T04:49:48.069Z,98.00
2023-01-11T04:52:16.467Z,98.00
2023-01-11T04:54:44.044Z,98.00
2023-01-11T04:57:13.774Z,97.90
2023-01-11T04:59:43.217Z,97.80
2023-01-11T05:02:11.109Z,98.00
2023-01-11T05:04:38.658Z,98.00
2023-01-11T05:07:08.582Z,97.90
2023-01-11T05:09:38.587Z,97.70
2023-01-11T05:12:06.479Z,97.70
2023-01-11T05:14:35.108Z,97.80
2023-01-11T05:17:02.807Z,97.70
2023-01-11T05:19:33.795Z,97.70
2023-01-11T05:22:01.006Z,97.70
2023-01-11T05:24:28.540Z,97.80
2023-01-11T05:26:56.526Z,97.70
2023-01-11T05:29:23.990Z,97.80
2023-01-11T05:31:58.473Z,97.80
2023-01-11T05:34:32.508Z,97.80
2023-01-11T05:37:01.973Z,97.90
2023-01-11T05:39:29.672Z,97.50
2023-01-11T05:42:04.249Z,97.60
2023-01-11T05:44:52.994Z,97.50
2023-01-11T05:47:20.682Z,97.60
2023-01-11T05:52:32.738Z,97.60
2023-01-11T05:55:00.707Z,97.40
2023-01-11T05:57:33.953Z,97.60
2023-01-11T06:00:08.113Z,97.60
2023-01-11T06:02:35.802Z,97.90
2023-01-11T06:05:03.515Z,97.60
2023-01-11T06:07:35.684Z,97.60
2023-01-11T06:10:03.423Z,97.60
2023-01-11T06:12:33.847Z,97.60
2023-01-11T06:15:01.093Z,97.70
2023-01-11T06:17:31.567Z,97.70
2023-01-11T06:19:59.187Z,97.50
2023-01-11T06:22:28.121Z,97.50
2023-01-11T06:24:55.498Z,97.50
2023-01-11T06:27:22.975Z,97.50
2023-01-11T06:29:51.115Z,97.40
2023-01-11T06:32:24.458Z,97.30
2023-01-11T06:34:51.859Z,97.40
2023-01-11T06:37:30.117Z,97.20
2023-01-11T06:40:37.711Z,97.20
2023-01-11T06:43:07.243Z,97.30
2023-01-11T06:46:03.154Z,97.50
2023-01-11T06:48:36.215Z,97.30
2023-01-11T06:51:32.373Z,97.40
2023-01-11T06:54:31.823Z,97.50
2023-01-11T06:57:05.392Z,97.60
2023-01-11T06:59:44.543Z,97.50
2023-01-11T07:02:16.911Z,97.50
2023-01-11T07:04:51.519Z,97.60
2023-01-11T07:07:22.854Z,97.60
2023-01-11T07:09:58.970Z,97.70
2023-01-11T07:13:09.537Z,97.80
2023-01-11T07:15:37.736Z,97.70
2023-01-11T07:18:13.475Z,97.80
2023-01-11T07:21:06.314Z,97.90
2023-01-11T07:23:53.721Z,97.80
2023-01-11T07:26:29.706Z,97.90
2023-01-11T07:29:46.360Z,97.90
2023-01-11T07:32:44.876Z,97.80
2023-01-11T07:39:14.858Z,97.80
2023-01-11T07:41:56.624Z,97.90
2023-01-11T07:44:43.281Z,98.00
2023-01-11T07:47:32.727Z,97.70
2023-01-11T07:53:12.303Z,97.60
2023-01-11T07:55:49.173Z,97.40
2023-01-11T07:58:26.241Z,97.50
2023-01-11T08:01:11.421Z,97.40
2023-01-11T08:03:59.871Z,97.10
2023-01-11T08:06:50.981Z,97.00
2023-01-11T08:09:33.498Z,97.00
2023-01-11T08:12:31.887Z,97.10
2023-01-11T08:15:12.860Z,97.10
2023-01-11T08:17:47.625Z,96.90
2023-01-11T08:20:18.714Z,97.10
2023-01-11T08:23:07.217Z,97.10
2023-01-11T08:25:38.585Z,97.00
2023-01-11T08:28:40.645Z,97.20
2023-01-11T08:31:12.581Z,96.80
2023-01-11T08:33:48.043Z,96.40
2023-01-11T08:36:18.409Z,96.60
2023-01-11T08:38:51.009Z,97.30
2023-01-11T08:41:33.327Z,96.70
2023-01-11T08:44:01.116Z,96.60
2023-01-11T08:47:00.704Z,96.80
2023-01-11T08:49:38.177Z,97.20
2023-01-11T08:52:19.576Z,97.30
2023-01-11T08:55:01.025Z,97.20
2023-01-11T08:57:35.783Z,96.90
2023-01-11T09:00:30.605Z,96.70
2023-01-11T09:03:08.841Z,96.40
2023-01-11T09:05:43.159Z,96.20
2023-01-11T09:08:12.965Z,96.20
2023-01-11T09:10:45.567Z,96.20
2023-01-11T09:13:19.755Z,96.00
2023-01-11T09:25:20.411Z,96.30
2023-01-11T09:28:12.252Z,97.40
2023-01-11T09:30:53.608Z,97.00
2023-01-11T09:53:57.919Z,93.70
2023-01-11T09:57:13.377Z,93.00
2023-01-11T10:00:41.186Z,93.20
2023-01-11T10:04:01.323Z,93.30
2023-01-11T10:07:03.574Z,93.50
2023-01-11T10:18:26.622Z,93.90
2023-01-11T10:19:57.542Z,93.90
2023-01-11T10:22:51.753Z,94.10
2023-01-11T10:25:35.639Z,93.90
2023-01-11T10:29:08.176Z,93.90
2023-01-11T10:32:22.712Z,93.70
2023-01-11T10:35:12.041Z,93.60
2023-01-11T10:38:09.820Z,93.50
2023-01-11T10:41:18.741Z,93.80
2023-01-11T10:44:23.627Z,93.50
2023-01-11T10:46:54.116Z,93.60
2023-01-11T10:49:41.595Z,93.40
2023-01-11T10:52:36.081Z,93.30
2023-01-11T11:00:14.648Z,92.80
2023-01-11T11:10:27.425Z,92.80
2023-01-11T11:13:07.022Z,93.40
2023-01-11T11:15:42.293Z,93.20
2023-01-11T11:18:14.448Z,93.30
2023-01-11T11:23:31.665Z,93.40
2023-01-11T11:26:02.770Z,93.00
2023-01-11T11:28:35.262Z,92.80
2023-01-11T11:31:07.202Z,92.60
2023-01-11T11:33:37.827Z,92.50
2023-01-11T11:36:11.919Z,92.40
2023-01-11T11:38:40.393Z,92.40
2023-01-11T11:41:18.346Z,92.20
2023-01-11T11:43:51.638Z,92.20
2023-01-11T11:46:28.342Z,92.10
2023-01-11T11:49:16.031Z,92.20
2023-01-11T11:51:46.143Z,92.10
2023-01-11T11:54:44.482Z,92.20
2023-01-11T11:57:30.087Z,92.30
2023-01-11T12:00:03.873Z,92.00
2023-01-11T12:02:38.102Z,92.00
2023-01-11T12:05:40.878Z,92.20
2023-01-11T12:21:58.331Z,92.50
2023-01-11T12:27:29.918Z,90.00
2023-01-11T12:30:19.972Z,90.80
2023-01-11T12:33:03.127Z,91.30
2023-01-11T12:35:53.088Z,91.40
2023-01-11T12:42:09.856Z,91.80
2023-01-11T12:45:14.887Z,92.10
2023-01-11T12:48:15.030Z,92.30
2023-01-11T12:51:06.361Z,92.20
2023-01-11T12:54:13.403Z,92.30
2023-01-11T12:57:14.570Z,92.40
2023-01-11T12:59:58.373Z,92.40
2023-01-11T13:02:47.962Z,92.40
2023-01-11T13:06:06.568Z,92.30
2023-01-11T13:09:05.346Z,92.50
2023-01-11T13:12:11.369Z,92.60
2023-01-11T13:15:18.950Z,92.50
2023-01-11T13:21:46.244Z,92.60
2023-01-11T13:24:32.019Z,92.70
2023-01-11T13:27:20.801Z,92.90
2023-01-11T13:30:04.424Z,92.90
2023-01-11T13:32:42.932Z,93.10
2023-01-11T13:35:19.828Z,93.00
2023-01-11T13:38:16.453Z,92.90
2023-01-11T13:41:00.414Z,92.90
2023-01-11T13:43:43.770Z,93.00
2023-01-11T13:46:58.009Z,93.00
2023-01-11T13:49:39.020Z,93.00
2023-01-11T13:52:27.344Z,93.10
2023-01-11T13:55:24.937Z,93.10
2023-01-11T13:58:24.008Z,93.30
2023-01-11T14:01:13.674Z,93.50
2023-01-11T14:04:04.276Z,93.40
2023-01-11T14:06:46.482Z,93.40
2023-01-11T14:09:50.870Z,93.40
2023-01-11T14:12:50.520Z,93.50
2023-01-11T14:16:11.329Z,93.40
2023-01-11T14:19:05.823Z,93.60
2023-01-11T14:22:11.794Z,93.70
2023-01-11T14:24:49.263Z,93.70
2023-01-11T14:27:55.936Z,93.70
2023-01-11T14:30:52.678Z,93.80
2023-01-11T14:34:14.999Z,93.90
2023-01-11T14:37:07.816Z,94.00
2023-01-11T14:40:11.953Z,93.90
2023-01-11T14:43:09.800Z,93.80
2023-01-11T14:46:10.439Z,94.00
2023-01-11T14:49:10.648Z,93.90
2023-01-11T14:52:07.434Z,93.90
2023-01-11T14:54:56.231Z,94.10
2023-01-11T14:57:45.151Z,94.00
2023-01-11T15:00:18.997Z,93.70
2023-01-11T15:03:20.823Z,93.70
2023-01-11T15:06:26.195Z,93.80
2023-01-11T15:09:28.789Z,94.10
2023-01-11T15:12:50.065Z,94.10
2023-01-11T15:15:23.926Z,94.40
2023-01-11T15:18:29.419Z,94.40
2023-01-11T15:21:16.239Z,94.40
2023-01-11T15:24:20.168Z,94.10
2023-01-11T15:27:36.378Z,94.20
2023-01-11T15:37:09.139Z,94.40
2023-01-11T15:40:03.836Z,94.10
2023-01-11T15:43:03.881Z,94.10
2023-01-11T15:46:48.729Z,94.30
2023-01-11T15:50:09.506Z,94.10
2023-01-11T15:52:58.278Z,94.10
2023-01-11T15:59:28.613Z,94.10
2023-01-11T16:02:43.310Z,94.00
2023-01-11T16:05:50.843Z,94.10
2023-01-11T16:09:11.540Z,94.00
2023-01-11T16:12:15.250Z,94.00
2023-01-11T16:16:07.613Z,94.00
2023-01-11T16:19:43.346Z,94.10
2023-01-11T16:22:27.377Z,94.00
2023-01-11T16:29:12.446Z,94.30
2023-01-11T16:32:35.682Z,94.20
2023-01-11T16:35:37.571Z,94.40
2023-01-11T16:38:33.491Z,94.20
2023-01-11T16:41:20.937Z,94.10
2023-01-11T16:44:16.165Z,94.10
2023-01-11T16:47:13.208Z,94.30
2023-01-11T16:50:29.257Z,94.10
2023-01-11T16:53:10.410Z,94.00
2023-01-11T17:03:04.518Z,94.30
2023-01-11T17:05:35.695Z,94.40
2023-01-11T17:08:41.024Z,94.30
2023-01-11T17:11:45.959Z,94.40
2023-01-11T17:15:02.512Z,94.30
2023-01-11T17:17:42.312Z,94.30
2023-01-11T17:20:36.632Z,94.20
2023-01-11T17:23:14.522Z,94.30
2023-01-11T17:25:50.152Z,94.30
2023-01-11T17:28:20.302Z,94.10
2023-01-11T17:31:12.792Z,94.20
2023-01-11T17:33:45.771Z,94.20
2023-01-11T17:36:49.566Z,94.20
2023-01-11T17:40:11.805Z,94.10
2023-01-11T17:43:05.397Z,94.00
2023-01-11T17:46:03.665Z,94.00
2023-01-11T17:48:38.887Z,94.00
2023-01-11T17:51:15.216Z,93.70
2023-01-11T17:53:56.519Z,93.80
2023-01-11T17:56:42.229Z,93.80
2023-01-11T17:59:20.095Z,93.80
2023-01-11T18:02:05.662Z,93.90
2023-01-11T18:04:37.663Z,93.90
2023-01-11T18:07:15.121Z,93.80
2023-01-11T18:10:03.528Z,93.40
2023-01-11T18:12:42.713Z,93.60
2023-01-11T18:15:28.788Z,93.70
2023-01-11T18:18:07.167Z,93.70
2023-01-11T18:20:39.460Z,93.70
2023-01-11T18:23:12.728Z,93.90
2023-01-11T18:25:40.703Z,93.90
2023-01-11T18:28:33.178Z,93.90
2023-01-11T18:31:20.859Z,93.70
2023-01-11T18:33:51.683Z,94.00
2023-01-11T18:36:21.855Z,93.80
2023-01-11T18:38:51.654Z,93.70
2023-01-11T18:41:37.551Z,93.70
2023-01-11T18:44:05.166Z,93.80
2023-01-11T18:46:33.171Z,93.60
2023-01-11T18:49:03.033Z,93.60
2023-01-11T18:51:45.450Z,93.50
2023-01-11T18:57:12.206Z,93.70
2023-01-11T18:59:42.396Z,93.60
2023-01-11T19:02:42.207Z,93.60
2023-01-11T19:05:21.175Z,93.80
2023-01-11T19:07:51.035Z,93.70
2023-01-11T19:10:46.418Z,93.70
2023-01-11T19:13:15.440Z,93.70
2023-01-11T19:15:48.452Z,93.50
2023-01-11T19:18:23.670Z,93.50
2023-01-11T19:21:02.521Z,93.60
2023-01-11T19:23:36.199Z,93.70
2023-01-11T19:26:15.255Z,93.70
2023-01-11T19:29:07.803Z,93.60
2023-01-11T19:31:44.185Z,93.70
2023-01-11T19:34:17.464Z,93.70
2023-01-11T19:36:58.066Z,93.80
2023-01-11T19:39:28.973Z,94.00
2023-01-11T19:42:02.809Z,94.00
2023-01-11T19:44:55.426Z,93.90
2023-01-11T19:47:28.539Z,93.80
2023-01-11T19:49:56.844Z,94.00
2023-01-11T19:52:24.887Z,94.10
2023-01-11T19:54:57.284Z,94.00
2023-01-11T19:57:24.788Z,93.90
2023-01-11T20:00:14.457Z,93.80
2023-01-11T20:02:48.881Z,94.00
2023-01-11T20:05:19.293Z,94.00
2023-01-11T20:07:49.703Z,94.10
2023-01-11T20:10:17.774Z,93.90
2023-01-11T20:12:47.614Z,94.20
2023-01-11T20:15:20.114Z,94.10
2023-01-11T20:17:53.060Z,94.20
2023-01-11T20:20:22.094Z,94.10
2023-01-11T20:22:50.043Z,94.50
2023-01-11T20:25:22.850Z,94.30
2023-01-11T20:27:51.508Z,94.50
2023-01-11T20:30:24.613Z,94.30
2023-01-11T20:33:25.020Z,94.50
2023-01-11T20:36:01.665Z,94.60
2023-01-11T20:38:36.209Z,94.60
2023-01-11T20:41:38.479Z,94.80
2023-01-11T20:44:15.395Z,94.70
2023-01-11T20:46:58.110Z,94.70
2023-01-11T20:49:32.940Z,94.80
2023-01-11T20:52:05.385Z,94.60
2023-01-11T20:54:44.415Z,94.60
2023-01-11T20:57:27.024Z,94.60
2023-01-11T20:59:59.017Z,94.60
2023-01-11T21:02:34.093Z,94.70
2023-01-11T21:05:09.673Z,94.70
2023-01-11T21:07:40.000Z,94.80
2023-01-11T21:10:24.281Z,94.80
2023-01-11T21:13:05.641Z,94.80
2023-01-11T21:15:43.291Z,94.60
2023-01-11T21:18:13.428Z,94.60
2023-01-11T21:20:53.638Z,94.60
2023-01-11T21:23:25.860Z,94.70
2023-01-11T21:26:19.026Z,94.60
2023-01-11T21:29:00.041Z,94.60
2023-01-11T21:31:34.550Z,94.70
2023-01-11T21:34:05.460Z,94.70
2023-01-11T21:36:33.736Z,94.70
2023-01-11T21:39:02.898Z,94.70
2023-01-11T21:41:52.279Z,94.80
2023-01-11T21:44:26.434Z,94.80
2023-01-11T21:47:06.282Z,94.80
2023-01-11T21:49:47.867Z,94.80
2023-01-11T21:52:32.656Z,94.80
2023-01-11T21:55:01.394Z,94.80
2023-01-11T21:57:33.017Z,94.80
2023-01-11T22:00:01.720Z,94.80
2023-01-11T22:02:34.332Z,94.80
2023-01-11T22:05:08.003Z,94.80
2023-01-11T22:07:41.809Z,94.60
2023-01-11T22:10:13.496Z,94.80
2023-01-11T22:12:44.076Z,94.60
2023-01-11T22:15:16.599Z,94.70
2023-01-11T22:17:46.051Z,94.50
2023-01-11T22:20:21.012Z,94.40
2023-01-11T22:22:48.977Z,94.30
2023-01-11T22:25:23.844Z,94.40
2023-01-11T22:27:54.079Z,94.40
2023-01-11T22:30:26.471Z,94.30
2023-01-11T22:32:53.984Z,94.10
2023-01-11T22:35:24.600Z,94.00
2023-01-11T22:37:58.063Z,94.00
2023-01-11T22:40:32.939Z,94.10
2023-01-11T22:43:00.532Z,94.00
2023-01-11T22:45:28.410Z,94.10
2023-01-11T22:48:05.520Z,94.00
2023-01-11T22:50:45.489Z,94.00
2023-01-11T22:53:13.333Z,94.10
2023-01-11T22:55:45.023Z,93.90
2023-01-11T22:58:12.659Z,94.10
2023-01-11T23:00:53.784Z,94.00
2023-01-11T23:03:21.442Z,94.30
2023-01-11T23:05:54.978Z,93.80
2023-01-11T23:08:39.339Z,94.00
2023-01-11T23:11:07.349Z,94.10
2023-01-11T23:13:52.700Z,94.10
2023-01-11T23:16:31.338Z,94.00
2023-01-11T23:19:25.325Z,94.30
2023-01-11T23:21:54.872Z,94.10
2023-01-11T23:24:27.561Z,94.30
2023-01-11T23:26:56.055Z,94.10
2023-01-11T23:29:30.374Z,94.10
2023-01-11T23:32:09.735Z,94.10
2023-01-11T23:34:47.961Z,94.20
2023-01-11T23:37:15.065Z,94.30
2023-01-11T23:40:08.771Z,94.10
2023-01-11T23:42:39.159Z,94.00
2023-01-11T23:45:10.051Z,93.90
2023-01-11T23:47:37.792Z,93.80
2023-01-11T23:50:09.119Z,93.80
2023-01-11T23:52:39.456Z,94.00
2023-01-11T23:55:12.006Z,93.60
2023-01-11T23:58:16.995Z,93.80
